Time;durP1;ratioP1;P1;durP2;ratioP2;P2;SDS_P1;SDS_P2;PMS_P1;PMS_P2;Temp;Humidity;BMP_temperature;BMP_pressure;BME280_temperature;BME280_humidity;BME280_pressure;Samples;Min_cycle;Max_cycle;Signal;HPM_P1;HPM_P2
2021/12/01 00:02:03;;;;;;;9.40;4.20;;;;;;;2.15;84.73;96696.06;103894;1318;137376;-84
2021/12/01 00:04:30;;;;;;;8.70;3.20;;;;;;;2.15;84.65;96702.34;104345;1323;25349;-83
2021/12/01 00:07:00;;;;;;;8.40;2.70;;;;;;;2.15;84.69;96699.49;104164;1316;137180;-83
2021/12/01 00:09:27;;;;;;;8.90;3.90;;;;;;;2.14;84.43;96702.27;103626;1319;22610;-83
2021/12/01 00:11:54;;;;;;;7.70;3.10;;;;;;;2.14;84.40;96707.95;103887;1318;138176;-83
2021/12/01 00:14:36;;;;;;;5.50;2.50;;;;;;;2.13;84.51;96708.27;104120;1321;22613;-83
2021/12/01 00:17:03;;;;;;;7.10;2.30;;;;;;;2.11;84.33;96713.11;103709;1316;25349;-83
2021/12/01 00:19:33;;;;;;;6.10;2.30;;;;;;;2.09;84.29;96716.17;103793;1319;137752;-82
2021/12/01 00:22:14;;;;;;;4.90;1.90;;;;;;;2.05;84.13;96732.14;103599;1317;22654;-82
2021/12/01 00:24:55;;;;;;;6.60;2.50;;;;;;;2.02;84.24;96723.30;103846;1323;138135;-81
2021/12/01 00:27:36;;;;;;;5.90;2.20;;;;;;;2.00;84.43;96726.19;103719;1319;22574;-83
2021/12/01 00:30:05;;;;;;;5.30;1.90;;;;;;;2.00;84.35;96735.73;103758;1320;138125;-82
2021/12/01 00:32:34;;;;;;;6.30;2.00;;;;;;;1.99;84.22;96743.48;103552;1322;22657;-83
2021/12/01 00:35:09;;;;;;;4.80;2.10;;;;;;;1.97;84.42;96752.02;103779;1321;22791;-83
2021/12/01 00:37:39;;;;;;;7.40;2.10;;;;;;;1.94;84.35;96758.94;104931;1318;137751;-83
2021/12/01 00:40:09;;;;;;;7.80;2.40;;;;;;;1.92;84.48;96767.54;104952;1316;24260;-83
2021/12/01 00:42:37;;;;;;;2.90;1.50;;;;;;;1.94;84.61;96775.95;103772;1319;137907;-83
2021/12/01 00:45:16;;;;;;;4.80;1.90;;;;;;;1.94;84.52;96781.48;104188;1316;23076;-82
2021/12/01 00:47:44;;;;;;;8.20;2.00;;;;;;;1.93;84.87;96787.73;103695;1322;22580;-82
2021/12/01 00:50:16;;;;;;;5.30;2.00;;;;;;;1.90;84.98;96795.03;103728;1320;137454;-84
2021/12/01 00:53:00;;;;;;;6.50;2.30;;;;;;;1.87;85.16;96794.41;104130;1321;25261;-83
2021/12/01 00:55:27;;;;;;;7.80;2.10;;;;;;;1.85;85.47;96800.39;103805;1323;137972;-85
2021/12/01 00:57:56;;;;;;;5.20;1.90;;;;;;;1.84;85.59;96808.87;104231;1322;22807;-83
2021/12/01 01:00:40;;;;;;;4.70;1.80;;;;;;;1.82;85.82;96815.92;104220;1323;137553;-83
2021/12/01 01:03:08;;;;;;;4.60;2.50;;;;;;;1.79;86.08;96816.27;103908;1315;22629;-84
2021/12/01 01:05:49;;;;;;;6.10;2.00;;;;;;;1.76;86.10;96820.73;103580;1322;138042;-82
2021/12/01 01:08:17;;;;;;;8.50;2.30;;;;;;;1.75;86.29;96829.90;105078;1316;22729;-83
2021/12/01 01:11:08;;;;;;;6.90;2.20;;;;;;;1.74;86.46;96834.30;103838;1316;22593;-83
2021/12/01 01:16:24;;;;;;;7.90;3.80;;;;;;;1.71;86.76;96842.96;105137;1321;22722;-82
2021/12/01 01:18:56;;;;;;;4.60;2.20;;;;;;;1.69;86.76;96840.27;104832;1317;137253;-82
2021/12/01 01:21:43;;;;;;;6.90;2.10;;;;;;;1.69;87.06;96845.34;104544;1321;24013;-82
2021/12/01 01:24:11;;;;;;;7.30;2.50;;;;;;;1.70;87.00;96852.23;105198;1317;138444;-82
2021/12/01 01:26:39;;;;;;;4.60;1.60;;;;;;;1.71;86.93;96856.38;104766;1323;22592;-82
2021/12/01 01:29:06;;;;;;;7.60;2.10;;;;;;;1.71;87.03;96865.98;104602;1320;22561;-82
2021/12/01 01:31:35;;;;;;;7.00;2.40;;;;;;;1.69;87.12;96872.02;103623;1319;138179;-81
2021/12/01 01:34:16;;;;;;;4.10;2.70;;;;;;;1.67;87.22;96880.10;103941;1323;22608;-83
2021/12/01 01:36:43;;;;;;;6.00;2.20;;;;;;;1.65;87.12;96892.02;104026;1316;137973;-82
2021/12/01 01:39:10;;;;;;;9.00;2.90;;;;;;;1.65;87.30;96898.83;103751;1317;22640;-82
2021/12/01 01:41:37;;;;;;;5.40;2.40;;;;;;;1.65;87.41;96900.02;104701;1317;22655;-81
2021/12/01 01:44:04;;;;;;;8.40;2.30;;;;;;;1.66;87.56;96906.20;104408;1317;137541;-81
2021/12/01 01:46:37;;;;;;;6.40;2.20;;;;;;;1.63;87.49;96909.57;103761;1323;23907;-80
2021/12/01 01:49:24;;;;;;;7.50;2.10;;;;;;;1.61;87.30;96907.66;103470;1321;138190;-82
2021/12/01 01:51:51;;;;;;;7.30;3.00;;;;;;;1.59;87.36;96922.02;103966;1321;22640;-82
2021/12/01 01:54:18;;;;;;;9.10;2.50;;;;;;;1.60;87.58;96927.13;104204;1315;138101;-83
2021/12/01 01:56:59;;;;;;;6.90;2.20;;;;;;;1.55;87.55;96931.98;104304;1316;24381;-82
2021/12/01 01:59:26;;;;;;;7.50;1.80;;;;;;;1.49;87.58;96930.96;103406;1316;22826;-82
2021/12/01 02:01:58;;;;;;;5.00;1.90;;;;;;;1.45;87.75;96935.56;102996;1319;137412;-82
2021/12/01 02:04:39;;;;;;;3.90;1.70;;;;;;;1.40;87.70;96944.15;103460;1323;22750;-82
2021/12/01 02:07:08;;;;;;;4.20;1.20;;;;;;;1.39;87.69;96941.08;103857;1322;138112;-83
2021/12/01 02:09:35;;;;;;;3.40;1.40;;;;;;;1.40;87.32;96943.99;103679;1316;23444;-82
2021/12/01 02:12:05;;;;;;;5.50;1.30;;;;;;;1.40;87.29;96954.51;103619;1322;137455;-82
2021/12/01 02:14:32;;;;;;;5.70;2.00;;;;;;;1.40;87.33;96962.67;103988;1323;23977;-82
2021/12/01 02:16:59;;;;;;;9.20;1.90;;;;;;;1.41;87.35;96971.92;104136;1317;22573;-83
2021/12/01 02:19:27;;;;;;;5.60;1.70;;;;;;;1.40;87.25;96976.50;104359;1316;137973;-83
2021/12/01 02:21:54;;;;;;;4.60;1.70;;;;;;;1.40;87.25;96977.69;104281;1316;22725;-82
2021/12/01 02:24:23;;;;;;;7.80;2.20;;;;;;;1.42;87.34;96979.63;103381;1319;137542;-82
2021/12/01 02:26:52;;;;;;;6.30;1.40;;;;;;;1.42;87.33;96985.11;103350;1321;22564;-83
2021/12/01 02:29:23;;;;;;;2.80;1.60;;;;;;;1.41;87.46;96989.41;103542;1322;25052;-83
2021/12/01 02:32:04;;;;;;;3.00;1.60;;;;;;;1.38;87.51;96993.66;103387;1323;138268;-82
2021/12/01 02:34:34;;;;;;;3.30;1.80;;;;;;;1.36;87.45;97003.90;103608;1319;22602;-81
2021/12/01 02:37:15;;;;;;;3.10;2.00;;;;;;;1.34;87.32;97007.60;103658;1321;137670;-82
2021/12/01 02:39:44;;;;;;;2.60;0.80;;;;;;;1.30;87.32;97007.34;103752;1321;22802;-82
2021/12/01 02:42:13;;;;;;;1.90;0.50;;;;;;;1.26;87.12;97010.52;103559;1323;137687;-82
2021/12/01 02:44:40;;;;;;;1.30;0.60;;;;;;;1.18;86.66;97021.90;103707;1323;25318;-82
2021/12/01 02:47:07;;;;;;;1.40;1.00;;;;;;;1.09;87.36;97036.02;103557;1323;22592;-82
2021/12/01 02:49:36;;;;;;;;;;;;;;;1.02;87.73;97032.52;103108;1318;137868;-82
2021/12/01 02:52:07;;;;;;;2.90;1.10;;;;;;;0.96;88.21;97047.61;103890;1323;22780;-83
2021/12/01 02:54:34;;;;;;;3.80;1.00;;;;;;;0.90;88.54;97050.09;103586;1323;137949;-83
2021/12/01 02:57:15;;;;;;;2.70;1.50;;;;;;;0.85;88.88;97045.36;103549;1322;24310;-83
2021/12/01 02:59:43;;;;;;;3.50;1.20;;;;;;;0.84;89.05;97048.98;103597;1323;22903;-82
2021/12/01 03:02:10;;;;;;;4.60;1.40;;;;;;;0.85;89.23;97049.23;103553;1322;137310;-82
2021/12/01 03:04:38;;;;;;;2.40;1.60;;;;;;;0.86;89.24;97052.23;103652;1321;24307;-83
2021/12/01 03:07:05;;;;;;;5.10;2.10;;;;;;;0.87;89.56;97056.22;103925;1317;137753;-82
2021/12/01 03:09:32;;;;;;;6.50;2.60;;;;;;;0.89;89.59;97060.83;103785;1323;22931;-83
2021/12/01 03:11:59;;;;;;;6.50;2.40;;;;;;;0.90;89.53;97065.64;103725;1316;138406;-83
2021/12/01 03:14:26;;;;;;;4.70;2.30;;;;;;;0.92;89.66;97072.30;103970;1320;22602;-82
2021/12/01 03:16:54;;;;;;;5.40;2.00;;;;;;;0.95;89.63;97076.52;103601;1317;22593;-83
2021/12/01 03:19:21;;;;;;;6.20;2.20;;;;;;;0.98;89.75;97078.38;103952;1321;137478;-83
2021/12/01 03:21:48;;;;;;;6.80;2.10;;;;;;;0.98;89.64;97080.44;103956;1323;23528;-83
2021/12/01 03:24:15;;;;;;;7.90;2.80;;;;;;;0.98;89.63;97080.14;103563;1323;137863;-83
2021/12/01 03:26:56;;;;;;;4.00;2.20;;;;;;;0.99;89.57;97083.96;103899;1323;30217;-83
2021/12/01 03:29:23;;;;;;;8.10;2.40;;;;;;;1.01;89.46;97095.63;103583;1316;22718;-83
2021/12/01 03:31:50;;;;;;;5.30;2.40;;;;;;;1.03;89.48;97094.38;103609;1323;137524;-83
2021/12/01 03:34:17;;;;;;;5.10;1.90;;;;;;;1.06;89.44;97102.38;103939;1317;22683;-83
2021/12/01 03:36:59;;;;;;;4.20;1.70;;;;;;;1.07;89.34;97105.76;103481;1321;137654;-83
2021/12/01 03:39:26;;;;;;;4.00;2.10;;;;;;;1.08;89.22;97110.82;103993;1321;22669;-83
2021/12/01 03:41:53;;;;;;;3.80;2.50;;;;;;;1.09;88.97;97120.96;103513;1321;138142;-83
2021/12/01 03:44:20;;;;;;;5.00;2.70;;;;;;;1.11;89.02;97127.02;103681;1321;22736;-83
2021/12/01 03:46:47;;;;;;;4.50;2.10;;;;;;;1.14;89.00;97132.89;103707;1323;22600;-83
2021/12/01 03:49:14;;;;;;;3.60;1.40;;;;;;;1.16;88.85;97140.92;103362;1321;137511;-83
2021/12/01 03:51:41;;;;;;;5.50;2.40;;;;;;;1.19;88.79;97150.78;103632;1316;25349;-83
2021/12/01 03:54:08;;;;;;;4.80;2.60;;;;;;;1.18;88.71;97156.04;103474;1315;138180;-83
2021/12/01 03:56:49;;;;;;;7.30;2.20;;;;;;;1.19;88.48;97156.40;103799;1322;22743;-83
2021/12/01 03:59:16;;;;;;;4.50;2.20;;;;;;;1.21;88.22;97155.12;103924;1322;22591;-83
2021/12/01 04:01:47;;;;;;;5.00;2.00;;;;;;;1.24;88.27;97162.59;103510;1322;137486;-83
2021/12/01 04:04:14;;;;;;;3.50;1.90;;;;;;;1.26;87.96;97166.52;104017;1319;22628;-83
2021/12/01 04:06:41;;;;;;;4.40;1.70;;;;;;;1.28;87.86;97170.03;103463;1321;137459;-84
2021/12/01 04:09:08;;;;;;;3.10;1.60;;;;;;;1.29;87.58;97174.41;103925;1317;25356;-83
2021/12/01 04:11:35;;;;;;;5.50;2.00;;;;;;;1.30;87.57;97179.43;103822;1317;22724;-84
2021/12/01 04:14:02;;;;;;;2.70;1.40;;;;;;;1.32;87.30;97181.94;103478;1323;138391;-83
2021/12/01 04:16:29;;;;;;;2.80;1.70;;;;;;;1.35;87.10;97189.21;103915;1316;22713;-83
2021/12/01 04:18:56;;;;;;;5.00;1.60;;;;;;;1.37;87.08;97189.20;103607;1321;137245;-81
2021/12/01 04:21:25;;;;;;;5.10;1.80;;;;;;;1.38;87.17;97191.30;103605;1316;22587;-82
2021/12/01 04:23:52;;;;;;;;;;;;;;;1.40;86.81;97191.45;103927;1316;137602;-81
2021/12/01 04:26:23;;;;;;;5.30;2.20;;;;;;;1.40;86.63;97195.58;104254;1322;24304;-82
2021/12/01 04:28:52;;;;;;;4.80;1.70;;;;;;;1.41;86.52;97195.56;103782;1317;22670;-81
2021/12/01 04:31:19;;;;;;;3.80;1.80;;;;;;;1.44;86.38;97203.17;103610;1318;137739;-81
2021/12/01 04:34:01;;;;;;;5.00;1.90;;;;;;;1.44;86.21;97201.90;104413;1316;22633;-82
2021/12/01 04:36:37;;;;;;;5.10;1.70;;;;;;;1.45;86.15;97204.66;104026;1318;137650;-82
2021/12/01 04:39:07;;;;;;;2.90;1.80;;;;;;;1.45;86.09;97214.48;104241;1316;22674;-83
2021/12/01 04:41:40;;;;;;;5.40;2.00;;;;;;;1.45;86.09;97217.33;103831;1322;22616;-82
2021/12/01 04:44:10;;;;;;;5.20;2.40;;;;;;;1.48;86.06;97222.52;103567;1321;137915;-83
2021/12/01 04:46:46;;;;;;;5.00;1.70;;;;;;;1.50;86.03;97223.56;103350;1317;196116;-82
2021/12/01 04:49:17;;;;;;;4.00;1.60;;;;;;;1.51;85.48;97226.85;103925;1316;137688;-83
2021/12/01 04:51:51;;;;;;;5.50;1.80;;;;;;;1.51;85.52;97227.94;103871;1316;22599;-83
2021/12/01 04:54:18;;;;;;;5.20;1.90;;;;;;;1.50;85.46;97229.63;104126;1316;137366;-82
2021/12/01 04:56:47;;;;;;;2.80;1.60;;;;;;;1.49;85.42;97230.29;104190;1322;24323;-82
2021/12/01 04:59:15;;;;;;;3.30;1.70;;;;;;;1.49;85.01;97234.63;104335;1317;23233;-82
2021/12/01 05:01:43;;;;;;;3.90;1.70;;;;;;;1.50;85.12;97234.83;104092;1316;137494;-82
2021/12/01 05:04:11;;;;;;;4.60;1.80;;;;;;;1.51;85.26;97236.80;103584;1315;22577;-83
2021/12/01 05:06:38;;;;;;;3.90;1.90;;;;;;;1.53;85.12;97238.41;103388;1317;137609;-82
2021/12/01 05:09:19;;;;;;;4.70;1.70;;;;;;;1.53;85.13;97237.30;103692;1318;30664;-83
2021/12/01 05:11:46;;;;;;;2.90;1.50;;;;;;;1.54;85.26;97245.80;103922;1321;26545;-82
2021/12/01 05:14:28;;;;;;;4.00;1.70;;;;;;;1.53;85.00;97244.80;103521;1317;138020;-82
2021/12/01 05:16:55;;;;;;;2.30;1.70;;;;;;;1.54;85.13;97244.97;103692;1315;22588;-83
2021/12/01 05:19:22;;;;;;;2.80;1.50;;;;;;;1.53;84.86;97254.45;103770;1320;137948;-82
2021/12/01 05:21:49;;;;;;;3.20;1.80;;;;;;;1.52;84.85;97257.91;103778;1317;22941;-82
2021/12/01 05:24:16;;;;;;;4.00;2.70;;;;;;;1.50;84.76;97257.25;103845;1316;137912;-83
2021/12/01 05:26:43;;;;;;;3.60;1.80;;;;;;;1.49;84.82;97257.42;103748;1321;22605;-82
2021/12/01 05:29:10;;;;;;;4.10;2.00;;;;;;;1.47;84.64;97258.66;103826;1321;25508;-83
2021/12/01 05:31:37;;;;;;;2.90;1.70;;;;;;;1.46;84.63;97252.82;103207;1317;137905;-82
2021/12/01 05:34:05;;;;;;;3.40;1.50;;;;;;;1.45;84.59;97249.68;103684;1321;22616;-82
2021/12/01 05:36:32;;;;;;;6.20;1.70;;;;;;;1.45;84.57;97252.04;103520;1321;137794;-82
2021/12/01 05:38:59;;;;;;;4.30;1.70;;;;;;;1.44;84.68;97250.22;103698;1321;22602;-82
2021/12/01 05:41:26;;;;;;;4.00;2.10;;;;;;;1.42;84.62;97251.14;103619;1316;25233;-82
2021/12/01 05:43:53;;;;;;;2.70;1.70;;;;;;;1.41;84.62;97251.57;103533;1316;137568;-82
2021/12/01 05:46:20;;;;;;;3.70;1.90;;;;;;;1.40;84.66;97247.32;103697;1321;22611;-82
2021/12/01 05:48:51;;;;;;;3.40;1.80;;;;;;;1.40;84.50;97244.60;104967;1315;137633;-82
2021/12/01 05:51:20;;;;;;;4.20;1.90;;;;;;;1.39;84.25;97234.98;103730;1317;22651;-81
2021/12/01 05:53:48;;;;;;;4.40;2.50;;;;;;;1.38;84.37;97235.16;103857;1317;22589;-82
2021/12/01 05:56:16;;;;;;;6.50;2.30;;;;;;;1.36;84.29;97233.86;103694;1318;137785;-82
2021/12/01 05:58:43;;;;;;;5.00;2.30;;;;;;;1.35;84.46;97233.30;103676;1318;22612;-82
2021/12/01 06:01:10;;;;;;;9.20;3.40;;;;;;;1.35;84.52;97236.62;103509;1320;138259;-82
2021/12/01 06:03:39;;;;;;;5.00;2.00;;;;;;;1.37;84.59;97235.49;103672;1316;24313;-82
2021/12/01 06:06:19;;;;;;;8.50;4.30;;;;;;;1.38;84.53;97236.98;103935;1320;137298;-82
2021/12/01 06:08:46;;;;;;;5.20;2.40;;;;;;;1.37;84.45;97244.20;103734;1320;25653;-82
2021/12/01 06:11:14;;;;;;;7.50;2.90;;;;;;;1.37;84.65;97253.86;103570;1321;23282;-82
2021/12/01 06:13:44;;;;;;;4.30;2.30;;;;;;;1.38;84.66;97256.41;103822;1323;137586;-82
2021/12/01 06:16:11;;;;;;;3.50;1.90;;;;;;;1.41;84.44;97258.30;103714;1316;22623;-82
2021/12/01 06:18:51;;;;;;;4.60;2.60;;;;;;;1.43;84.50;97260.23;103424;1322;137849;-82
2021/12/01 06:21:32;;;;;;;8.50;3.60;;;;;;;1.45;84.35;97259.88;103912;1317;22714;-82
2021/12/01 06:24:13;;;;;;;3.90;2.50;;;;;;;1.45;84.28;97260.30;103763;1319;137620;-83
2021/12/01 06:26:40;;;;;;;5.60;3.00;;;;;;;1.45;84.24;97263.35;104146;1315;25354;-82
2021/12/01 06:29:07;;;;;;;6.00;2.80;;;;;;;1.43;84.15;97262.53;104065;1318;22598;-82
2021/12/01 06:31:48;;;;;;;9.90;3.10;;;;;;;1.40;84.00;97261.18;103404;1316;137934;-82
2021/12/01 06:34:15;;;;;;;5.20;2.70;;;;;;;1.41;84.12;97262.30;103855;1319;22688;-82
2021/12/01 06:36:56;;;;;;;7.20;2.80;;;;;;;1.40;84.05;97257.67;104041;1317;137666;-82
2021/12/01 06:39:37;;;;;;;8.80;3.50;;;;;;;1.42;84.13;97256.23;104493;1318;22565;-82
2021/12/01 06:42:04;;;;;;;8.10;3.00;;;;;;;1.43;84.20;97259.52;104246;1315;22947;-82
2021/12/01 06:44:31;;;;;;;6.90;4.00;;;;;;;1.43;84.21;97270.58;103749;1316;137121;-82
2021/12/01 06:46:58;;;;;;;5.60;2.80;;;;;;;1.44;84.27;97277.30;103917;1316;23404;-82
2021/12/01 06:49:25;;;;;;;6.50;3.30;;;;;;;1.47;84.14;97283.80;104023;1314;137909;-82
2021/12/01 06:52:06;;;;;;;6.90;2.90;;;;;;;1.47;84.10;97285.33;103916;1316;22596;-82
2021/12/01 06:54:33;;;;;;;7.70;3.20;;;;;;;1.48;84.07;97278.88;103897;1316;137577;-82
2021/12/01 06:57:00;;;;;;;8.50;3.30;;;;;;;1.48;84.18;97273.20;104434;1316;25380;-82
2021/12/01 06:59:27;;;;;;;5.40;3.60;;;;;;;1.51;84.35;97276.93;103773;1316;22626;-82
2021/12/01 07:01:54;;;;;;;6.70;3.20;;;;;;;1.53;84.22;97272.37;103611;1316;138016;-83
2021/12/01 07:04:21;;;;;;;5.90;3.60;;;;;;;1.56;84.03;97273.92;104107;1321;24243;-82
2021/12/01 07:06:48;;;;;;;9.60;3.80;;;;;;;1.59;84.15;97272.63;104456;1316;138100;-82
2021/12/01 07:09:23;;;;;;;8.80;3.70;;;;;;;1.61;84.18;97270.88;103988;1316;22652;-82
2021/12/01 07:11:51;;;;;;;9.60;4.00;;;;;;;1.64;84.06;97269.04;103882;1318;31692;-82
2021/12/01 07:14:31;;;;;;;8.80;3.10;;;;;;;1.63;83.85;97267.14;103910;1316;137552;-81
2021/12/01 07:17:12;;;;;;;6.10;3.90;;;;;;;1.61;83.72;97271.20;103746;1316;23170;-82
2021/12/01 07:19:39;;;;;;;7.10;4.10;;;;;;;1.60;83.68;97274.11;103625;1321;138142;-82
2021/12/01 07:22:07;;;;;;;7.90;3.90;;;;;;;1.59;83.70;97276.83;103679;1319;22638;-82
2021/12/01 07:24:34;;;;;;;5.70;3.70;;;;;;;1.61;83.93;97272.64;103401;1321;137792;-82
2021/12/01 07:27:16;;;;;;;7.10;3.30;;;;;;;1.63;83.75;97270.45;103746;1323;22716;-82
2021/12/01 07:29:45;;;;;;;6.50;3.90;;;;;;;1.64;83.85;97261.64;103765;1315;22851;-81
2021/12/01 07:32:12;;;;;;;8.40;3.90;;;;;;;1.66;83.93;97257.30;103506;1321;137889;-82
2021/12/01 07:34:42;;;;;;;10.00;4.40;;;;;;;1.66;83.58;97258.48;103819;1315;22627;-82
2021/12/01 07:37:15;;;;;;;7.70;3.90;;;;;;;1.67;83.43;97255.18;103658;1320;138833;-82
2021/12/01 07:39:44;;;;;;;7.70;3.70;;;;;;;1.72;83.63;97256.27;103881;1315;22657;-82
2021/12/01 07:42:12;;;;;;;7.60;3.00;;;;;;;1.76;83.53;97248.55;104064;1321;26502;-82
2021/12/01 07:44:40;;;;;;;4.70;3.20;;;;;;;1.79;83.45;97246.88;103835;1321;137053;-81
2021/12/01 07:47:08;;;;;;;5.90;3.60;;;;;;;1.81;83.45;97238.23;103521;1316;22635;-82
2021/12/01 07:49:36;;;;;;;7.00;3.50;;;;;;;1.82;83.44;97232.45;103463;1314;137376;-82
2021/12/01 07:52:05;;;;;;;8.10;4.40;;;;;;;1.85;83.32;97229.61;103869;1317;22642;-82
2021/12/01 07:54:46;;;;;;;8.80;4.40;;;;;;;1.89;83.33;97226.06;104007;1316;137987;-81
2021/12/01 07:57:14;;;;;;;7.90;3.80;;;;;;;1.94;83.30;97215.00;104510;1317;22564;-82
2021/12/01 07:59:41;;;;;;;6.90;3.50;;;;;;;1.97;83.22;97209.27;104599;1315;23606;-82
2021/12/01 08:02:09;;;;;;;6.40;3.70;;;;;;;2.00;83.08;97203.73;103623;1317;137785;-82
2021/12/01 08:04:49;;;;;;;7.10;4.50;;;;;;;2.05;82.85;97205.02;103987;1317;22701;-82
2021/12/01 08:07:16;;;;;;;8.10;4.80;;;;;;;2.09;82.67;97201.05;103600;1315;138499;-82
2021/12/01 08:09:43;;;;;;;11.40;4.60;;;;;;;2.16;82.50;97201.15;104000;1314;25311;-82
2021/12/01 08:12:24;;;;;;;9.90;5.00;;;;;;;2.22;82.57;97198.57;103725;1318;137660;-82
2021/12/01 08:14:51;;;;;;;12.80;6.70;;;;;;;2.27;82.28;97200.58;104170;1316;22602;-82
2021/12/01 08:17:18;;;;;;;9.10;5.60;;;;;;;2.31;82.35;97196.55;105546;1322;22772;-82
2021/12/01 08:19:45;;;;;;;15.50;6.90;;;;;;;2.34;82.05;97194.80;103790;1318;137576;-82
2021/12/01 08:22:12;;;;;;;12.20;7.30;;;;;;;2.37;82.05;97193.98;103759;1322;22709;-82
2021/12/01 08:24:39;;;;;;;15.20;7.70;;;;;;;2.42;82.11;97191.24;105010;1318;138456;-82
2021/12/01 08:27:06;;;;;;;16.30;7.90;;;;;;;2.49;82.03;97191.83;103737;1323;23377;-82
2021/12/01 08:29:33;;;;;;;13.50;8.00;;;;;;;2.53;81.77;97191.82;103884;1318;25313;-82
2021/12/01 08:32:00;;;;;;;17.90;8.10;;;;;;;2.56;81.68;97189.27;105403;1318;137276;-82
2021/12/01 08:34:27;;;;;;;13.50;7.80;;;;;;;2.57;81.40;97193.06;105253;1316;23101;-83
2021/12/01 08:36:54;;;;;;;15.00;8.00;;;;;;;2.57;80.84;97192.04;104971;1316;137962;-82
2021/12/01 08:39:35;;;;;;;16.50;8.60;;;;;;;2.57;80.88;97186.98;104001;1316;22657;-82
2021/12/01 08:42:03;;;;;;;18.40;8.60;;;;;;;2.59;80.72;97186.77;103969;1317;24278;-82
2021/12/01 08:44:30;;;;;;;13.10;7.70;;;;;;;2.60;80.74;97188.31;104556;1318;137894;-82
2021/12/01 08:47:00;;;;;;;18.80;8.40;;;;;;;2.60;80.59;97185.25;104337;1315;23965;-81
2021/12/01 08:49:28;;;;;;;13.20;7.40;;;;;;;2.61;80.41;97176.27;104442;1322;137588;-83
2021/12/01 08:51:55;;;;;;;18.00;8.30;;;;;;;2.62;80.23;97177.95;104817;1321;23975;-82
2021/12/01 08:54:22;;;;;;;18.00;8.00;;;;;;;2.62;80.21;97182.60;105243;1321;137460;-82
2021/12/01 08:56:49;;;;;;;17.20;8.50;;;;;;;2.63;79.89;97178.06;104463;1322;24295;-82
2021/12/01 08:59:16;;;;;;;20.30;8.80;;;;;;;2.65;79.79;97177.21;103913;1320;24219;-82
2021/12/01 09:01:43;;;;;;;16.00;7.40;;;;;;;2.72;80.14;97171.98;103616;1316;137386;-81
2021/12/01 09:04:10;;;;;;;14.20;7.50;;;;;;;2.79;79.79;97168.68;103603;1317;24252;-84
2021/12/01 09:06:37;;;;;;;15.70;7.10;;;;;;;2.85;79.50;97162.06;104348;1318;137619;-82
2021/12/01 09:09:04;;;;;;;15.40;7.00;;;;;;;2.88;79.24;97159.12;104338;1317;22598;-82
2021/12/01 09:11:31;;;;;;;19.20;7.50;;;;;;;2.90;78.92;97163.86;104623;1315;22543;-81
2021/12/01 09:13:58;;;;;;;15.20;6.90;;;;;;;2.91;78.59;97161.57;104762;1318;137939;-83
2021/12/01 09:16:25;;;;;;;14.50;5.90;;;;;;;2.94;78.66;97155.38;103996;1319;22603;-82
2021/12/01 09:18:52;;;;;;;12.30;5.30;;;;;;;2.97;77.96;97154.04;105005;1321;137934;-82
2021/12/01 09:21:33;;;;;;;10.40;5.00;;;;;;;2.96;77.64;97153.17;103646;1321;22785;-83
2021/12/01 09:24:02;;;;;;;13.80;5.90;;;;;;;2.96;77.81;97148.49;104457;1320;22659;-82
2021/12/01 09:26:43;;;;;;;13.30;6.10;;;;;;;2.97;77.79;97145.51;104095;1323;137300;-82
2021/12/01 09:29:10;;;;;;;8.80;4.10;;;;;;;2.98;77.45;97138.27;103498;1318;25219;-81
2021/12/01 09:31:37;;;;;;;12.50;4.30;;;;;;;2.99;77.32;97132.04;103503;1316;137223;-82
2021/12/01 09:34:04;;;;;;;10.50;4.60;;;;;;;3.04;77.55;97134.88;103807;1316;23434;-82
2021/12/01 09:36:31;;;;;;;13.90;5.00;;;;;;;3.14;77.79;97140.39;103431;1316;138279;-82
2021/12/01 09:38:58;;;;;;;9.30;4.80;;;;;;;3.25;77.49;97139.11;103921;1318;22614;-82
2021/12/01 09:41:26;;;;;;;8.30;3.70;;;;;;;3.35;76.99;97135.64;103620;1321;24335;-82
2021/12/01 09:43:53;;;;;;;9.00;3.50;;;;;;;3.44;76.69;97128.38;103425;1321;138002;-82
2021/12/01 09:46:20;;;;;;;7.20;3.20;;;;;;;3.53;76.62;97120.90;104301;1318;22624;-83
2021/12/01 09:48:47;;;;;;;6.50;2.70;;;;;;;3.61;76.04;97111.08;104006;1315;137327;-83
2021/12/01 09:51:16;;;;;;;8.00;3.20;;;;;;;3.67;75.21;97102.14;104337;1322;25367;-81
2021/12/01 09:53:45;;;;;;;7.00;3.20;;;;;;;3.73;75.16;97102.73;104033;1316;22660;-82
2021/12/01 09:56:12;;;;;;;8.00;3.50;;;;;;;3.82;75.04;97097.98;104290;1318;137272;-82
2021/12/01 09:58:42;;;;;;;7.20;2.70;;;;;;;3.92;75.16;97097.01;104240;1316;25442;-82
2021/12/01 10:01:14;;;;;;;8.40;3.10;;;;;;;4.00;74.87;97097.08;103673;1318;137548;-82
2021/12/01 10:03:43;;;;;;;11.20;3.60;;;;;;;4.08;74.92;97099.73;103805;1316;25454;-82
2021/12/01 10:06:26;;;;;;;8.50;3.70;;;;;;;4.17;74.39;97092.21;103485;1317;138003;-82
2021/12/01 10:09:03;;;;;;;6.20;3.20;;;;;;;4.25;73.48;97088.63;103977;1318;22592;-83
2021/12/01 10:11:33;;;;;;;11.70;3.70;;;;;;;4.31;72.91;97083.06;103635;1316;22596;-82
2021/12/01 10:14:04;;;;;;;10.80;4.20;;;;;;;4.32;72.65;97080.39;103595;1316;137668;-82
2021/12/01 10:16:50;;;;;;;7.70;4.00;;;;;;;4.31;72.58;97079.79;103869;1316;22591;-82
2021/12/01 10:19:17;;;;;;;8.50;3.30;;;;;;;4.30;72.12;97072.86;103428;1318;137447;-82
2021/12/01 10:21:49;;;;;;;18.20;5.90;;;;;;;4.29;72.13;97077.15;103685;1322;22585;-81
2021/12/01 10:24:18;;;;;;;10.20;3.90;;;;;;;4.31;72.20;97071.09;103675;1316;23685;-82
2021/12/01 10:26:49;;;;;;;8.50;3.80;;;;;;;4.34;72.10;97070.61;104080;1316;138141;-82
2021/12/01 10:29:18;;;;;;;8.20;3.70;;;;;;;4.37;72.69;97068.97;104180;1315;24320;-82
2021/12/01 10:31:59;;;;;;;7.50;3.40;;;;;;;4.41;72.35;97065.41;103765;1315;137943;-82
2021/12/01 10:34:35;;;;;;;6.10;2.50;;;;;;;4.44;71.92;97059.05;103769;1321;26468;-82
2021/12/01 10:37:26;;;;;;;8.70;3.10;;;;;;;4.43;71.56;97056.29;104521;1316;137744;-82
2021/12/01 10:40:10;;;;;;;8.20;3.40;;;;;;;4.47;71.64;97056.86;104256;1317;22730;-80
2021/12/01 10:42:59;;;;;;;11.40;4.20;;;;;;;4.51;71.72;97052.84;104341;1316;137780;-82
2021/12/01 10:45:34;;;;;;;9.60;3.90;;;;;;;4.59;71.57;97045.98;104265;1315;22685;-82
2021/12/01 10:48:03;;;;;;;8.30;4.20;;;;;;;4.65;71.15;97040.75;104091;1315;25334;-82
2021/12/01 10:50:32;;;;;;;;;;;;;;;4.67;69.89;97037.96;103733;1319;138498;-82
2021/12/01 10:53:18;;;;;;;9.30;3.20;;;;;;;4.67;69.69;97033.50;103948;1315;25493;-82
2021/12/01 10:55:49;;;;;;;6.30;2.70;;;;;;;4.66;69.66;97033.71;103750;1316;138403;-82
2021/12/01 10:58:18;;;;;;;8.30;4.10;;;;;;;4.66;69.22;97025.23;103750;1317;25570;-82
2021/12/01 11:00:51;;;;;;;7.40;2.70;;;;;;;4.65;69.01;97017.02;103705;1316;137549;-82
2021/12/01 11:03:26;;;;;;;6.20;3.20;;;;;;;4.63;68.32;97006.73;103921;1318;22596;-82
2021/12/01 11:05:56;;;;;;;6.70;3.00;;;;;;;4.60;68.37;97003.27;103979;1319;23241;-82
2021/12/01 11:08:31;;;;;;;7.40;2.90;;;;;;;4.60;68.36;96994.00;104007;1316;137516;-82
2021/12/01 11:11:05;;;;;;;6.40;2.60;;;;;;;4.60;68.24;96992.98;103910;1316;22664;-82
2021/12/01 11:13:47;;;;;;;9.10;2.70;;;;;;;4.60;67.70;96992.23;103966;1319;137385;-82
2021/12/01 11:16:17;;;;;;;6.40;2.40;;;;;;;4.59;67.43;96989.53;103987;1321;22566;-82
2021/12/01 11:18:49;;;;;;;7.30;2.70;;;;;;;4.59;67.49;96990.45;104100;1321;137304;-82
2021/12/01 11:21:22;;;;;;;7.00;3.50;;;;;;;4.57;67.36;96986.69;103982;1314;25372;-82
2021/12/01 11:23:52;;;;;;;6.40;2.40;;;;;;;4.56;67.79;96980.52;104016;1316;22766;-82
2021/12/01 11:26:21;;;;;;;6.90;2.60;;;;;;;4.58;68.25;96971.98;103571;1318;137334;-83
2021/12/01 11:28:50;;;;;;;;;;;;;;;4.58;68.29;96969.39;104413;1315;22587;-82
2021/12/01 11:31:19;;;;;;;7.00;2.80;;;;;;;4.58;68.17;96971.29;103989;1323;124430;-82
2021/12/01 11:33:48;;;;;;;5.80;2.40;;;;;;;4.54;68.21;96968.25;103796;1321;22599;-83
2021/12/01 11:36:19;;;;;;;6.10;2.40;;;;;;;4.51;68.62;96967.98;103779;1322;26531;-82
2021/12/01 11:38:51;;;;;;;4.60;2.60;;;;;;;4.49;68.69;96964.91;103825;1322;137542;-82
2021/12/01 11:41:19;;;;;;;4.30;2.50;;;;;;;4.48;68.89;96958.01;103989;1317;22616;-82
2021/12/01 11:43:48;;;;;;;4.60;2.10;;;;;;;4.50;69.13;96945.91;103509;1317;137586;-83
2021/12/01 11:46:16;;;;;;;4.90;2.20;;;;;;;4.52;69.23;96942.00;103929;1318;23216;-82
2021/12/01 11:48:55;;;;;;;6.90;2.70;;;;;;;4.53;69.23;96941.60;104786;1316;137549;-83